Time;durP1;ratioP1;P1;durP2;ratioP2;P2;SDS_P1;SDS_P2;PMS_P1;PMS_P2;Temp;Humidity;BMP_temperature;BMP_pressure;BME280_temperature;BME280_humidity;BME280_pressure;Samples;Min_cycle;Max_cycle;Signal;HPM_P1;HPM_P2
2022/11/24 00:02:22;;;;;;;16.48;3.92;;;;;;;8.93;75.86;100204.69;5028596;28;20389;-61
2022/11/24 00:04:47;;;;;;;21.10;4.57;;;;;;;8.94;75.75;100203.59;5028782;28;20057;-61
2022/11/24 00:07:12;;;;;;;16.85;4.43;;;;;;;8.95;75.67;100207.19;5029990;28;20069;-61
2022/11/24 00:09:38;;;;;;;17.25;3.88;;;;;;;8.95;75.54;100199.72;5024697;28;20591;-61
2022/11/24 00:12:03;;;;;;;18.70;4.03;;;;;;;8.94;75.38;100198.03;5029545;28;20507;-61
2022/11/24 00:14:28;;;;;;;20.70;4.03;;;;;;;8.93;75.51;100206.63;5025713;28;20052;-61
2022/11/24 00:16:54;;;;;;;13.75;3.85;;;;;;;8.95;74.88;100216.31;5030186;28;20469;-61
2022/11/24 00:19:19;;;;;;;15.43;3.92;;;;;;;8.91;74.73;100220.69;5026578;28;20445;-61
2022/11/24 00:21:44;;;;;;;17.38;3.95;;;;;;;8.92;75.45;100219.63;5030949;28;20431;-60
2022/11/24 00:24:10;;;;;;;19.05;3.97;;;;;;;8.94;75.28;100227.66;5027925;28;20484;-61
2022/11/24 00:26:36;;;;;;;16.80;3.80;;;;;;;8.93;75.27;100224.06;5028533;28;20057;-60
2022/11/24 00:29:05;;;;;;;14.48;3.55;;;;;;;8.95;75.56;100232.09;5031177;28;20369;-60
2022/11/24 00:31:35;;;;;;;15.10;3.63;;;;;;;8.92;74.87;100224.28;5026409;28;20026;-60
2022/11/24 00:34:04;;;;;;;14.43;3.97;;;;;;;8.94;75.44;100233.19;5032133;28;20038;-60
2022/11/24 00:36:31;;;;;;;13.95;3.58;;;;;;;8.95;75.02;100227.38;5032258;28;20057;-60
2022/11/24 00:38:58;;;;;;;17.63;3.55;;;;;;;8.95;74.84;100221.84;5034107;28;20491;-60
2022/11/24 00:41:25;;;;;;;13.30;3.75;;;;;;;8.93;75.29;100223.22;5029305;28;20508;-59
2022/11/24 00:43:51;;;;;;;16.20;3.72;;;;;;;8.93;75.14;100226.81;5032070;28;20473;-59
2022/11/24 00:46:18;;;;;;;18.75;3.40;;;;;;;8.94;74.42;100228.50;5030986;28;20101;-59
2022/11/24 00:48:43;;;;;;;11.07;3.28;;;;;;;8.95;74.44;100232.09;5031802;28;20038;-60
2022/11/24 00:51:10;;;;;;;20.52;3.78;;;;;;;8.90;75.22;100235.63;5030588;28;20503;-60
2022/11/24 00:53:36;;;;;;;17.17;3.60;;;;;;;8.91;74.66;100234.53;5032481;28;20029;-60
2022/11/24 00:56:04;;;;;;;15.60;3.58;;;;;;;8.93;74.84;100246.19;5031786;28;20032;-60
2022/11/24 00:58:30;;;;;;;13.88;3.45;;;;;;;8.93;75.11;100248.97;5031423;28;20033;-59
2022/11/24 01:01:04;;;;;;;16.98;3.70;;;;;;;8.88;74.94;100248.88;5030261;28;20033;-59
2022/11/24 01:03:30;;;;;;;14.13;3.20;;;;;;;8.90;74.69;100246.72;5032762;28;20036;-59
2022/11/24 01:05:55;;;;;;;19.30;3.35;;;;;;;8.88;74.77;100248.03;5022192;28;20116;-59
2022/11/24 01:08:20;;;;;;;15.45;3.45;;;;;;;8.87;74.79;100260.22;5031749;28;20036;-60
2022/11/24 01:10:46;;;;;;;19.23;3.67;;;;;;;8.87;75.12;100263.81;5031641;28;20037;-60
2022/11/24 01:13:12;;;;;;;14.07;3.33;;;;;;;8.84;74.79;100267.97;5032674;28;20509;-60
2022/11/24 01:15:38;;;;;;;13.73;3.28;;;;;;;8.84;74.82;100267.09;5028680;28;20034;-60
2022/11/24 01:18:04;;;;;;;19.58;3.80;;;;;;;8.82;74.79;100274.81;5043565;28;20033;-60
2022/11/24 01:20:30;;;;;;;20.67;3.95;;;;;;;8.80;74.27;100266.78;5032357;28;20052;-60
2022/11/24 01:22:55;;;;;;;15.68;3.45;;;;;;;8.83;74.72;100266.25;5029345;28;20067;-60
2022/11/24 01:25:21;;;;;;;17.52;4.15;;;;;;;8.85;74.50;100275.16;5032579;28;20025;-60
2022/11/24 01:27:46;;;;;;;16.73;3.67;;;;;;;8.82;74.99;100272.06;5035991;28;20025;-59
2022/11/24 01:30:12;;;;;;;17.27;3.47;;;;;;;8.83;74.61;100273.72;5029912;28;20052;-60
2022/11/24 01:32:37;;;;;;;17.23;3.83;;;;;;;8.80;74.56;100279.75;5031649;28;20117;-60
2022/11/24 01:35:04;;;;;;;16.00;3.97;;;;;;;8.75;74.86;100265.88;5032350;28;20072;-60
2022/11/24 01:37:29;;;;;;;17.67;3.60;;;;;;;8.75;75.03;100285.25;5028664;28;20622;-60
2022/11/24 01:39:54;;;;;;;16.90;3.00;;;;;;;8.76;74.47;100278.59;5031779;28;20029;-60
2022/11/24 01:42:20;;;;;;;24.17;4.05;;;;;;;8.79;74.57;100278.09;5030122;28;20040;-60
2022/11/24 01:44:47;;;;;;;15.27;3.38;;;;;;;8.77;74.69;100283.91;5029414;28;20351;-59
2022/11/24 01:47:31;;;;;;;18.70;3.72;;;;;;;8.81;74.54;100292.53;5030578;28;20029;-60
2022/11/24 01:50:00;;;;;;;13.90;3.45;;;;;;;8.79;74.20;100291.94;5034112;28;20079;-60
2022/11/24 01:52:45;;;;;;;16.33;3.35;;;;;;;8.82;74.35;100295.03;5042536;28;20539;-60
2022/11/24 01:55:17;;;;;;;17.42;3.65;;;;;;;8.76;74.32;100297.97;5031860;28;20083;-59
2022/11/24 01:57:49;;;;;;;16.27;3.58;;;;;;;8.75;74.45;100294.38;5048952;28;20067;-60
2022/11/24 02:00:15;;;;;;;19.90;3.95;;;;;;;8.79;74.66;100300.25;5041608;28;20032;-59
2022/11/24 02:02:43;;;;;;;15.95;3.40;;;;;;;8.78;74.31;100295.81;5031126;28;20029;-59
2022/11/24 02:05:20;;;;;;;17.25;3.60;;;;;;;8.79;74.75;100306.59;5017619;28;20033;-59
2022/11/24 02:07:46;;;;;;;15.38;3.40;;;;;;;8.74;74.64;100309.31;5047511;28;20032;-59
2022/11/24 02:10:14;;;;;;;18.00;3.85;;;;;;;8.75;74.42;100299.06;5031076;28;20442;-60
2022/11/24 02:12:43;;;;;;;16.83;3.70;;;;;;;8.77;74.61;100310.75;5030701;28;20056;-59
2022/11/24 02:15:11;;;;;;;20.48;4.07;;;;;;;8.76;74.14;100311.81;5033274;28;20428;-59
2022/11/24 02:17:37;;;;;;;22.00;3.95;;;;;;;8.78;74.22;100317.94;5030560;28;20448;-60
2022/11/24 02:20:06;;;;;;;15.98;3.42;;;;;;;8.78;74.21;100318.78;5036632;28;20049;-60
2022/11/24 02:22:42;;;;;;;12.75;3.67;;;;;;;8.77;74.59;100321.81;5050917;28;20049;-61
2022/11/24 02:25:15;;;;;;;16.52;3.78;;;;;;;8.75;74.66;100321.22;5031971;28;20034;-60
2022/11/24 02:27:43;;;;;;;18.50;3.92;;;;;;;8.68;74.52;100320.53;5030190;28;20037;-60
2022/11/24 02:30:09;;;;;;;18.05;3.78;;;;;;;8.69;74.68;100327.78;5033373;28;20120;-60
2022/11/24 02:32:36;;;;;;;21.95;3.60;;;;;;;8.68;74.69;100315.00;5033999;28;20120;-60
2022/11/24 02:35:04;;;;;;;18.50;3.45;;;;;;;8.71;74.98;100328.34;5033654;28;20034;-60
2022/11/24 02:37:29;;;;;;;23.27;4.40;;;;;;;8.74;74.47;100330.59;5034438;28;20033;-60
2022/11/24 02:39:55;;;;;;;16.67;3.95;;;;;;;8.76;74.68;100325.66;5043883;28;20124;-60
2022/11/24 02:42:20;;;;;;;22.30;4.15;;;;;;;8.77;74.46;100330.94;5032230;28;20112;-60
2022/11/24 02:44:49;;;;;;;20.35;4.00;;;;;;;8.79;74.94;100325.97;5034779;28;20033;-60
2022/11/24 02:47:15;;;;;;;20.08;4.10;;;;;;;8.81;74.71;100331.28;5030427;28;20531;-60
2022/11/24 02:49:40;;;;;;;17.27;3.72;;;;;;;8.80;75.00;100329.56;5035208;28;20033;-60
2022/11/24 02:52:06;;;;;;;18.98;3.85;;;;;;;8.82;74.93;100327.41;5031324;28;20503;-60
2022/11/24 02:54:31;;;;;;;15.32;3.72;;;;;;;8.83;74.98;100331.84;5034548;28;20388;-60
2022/11/24 02:56:57;;;;;;;17.67;4.50;;;;;;;8.85;74.85;100337.97;5036161;28;20037;-60
2022/11/24 02:59:23;;;;;;;19.58;4.00;;;;;;;8.85;75.21;100343.50;5042742;28;20064;-60
2022/11/24 03:01:48;;;;;;;19.30;3.85;;;;;;;8.82;74.56;100346.78;5033757;28;20095;-60
2022/11/24 03:04:13;;;;;;;19.10;4.38;;;;;;;8.81;75.09;100343.19;5029655;28;20072;-60
2022/11/24 03:06:39;;;;;;;16.33;4.07;;;;;;;8.84;75.47;100341.81;5027977;28;20032;-60
2022/11/24 03:09:05;;;;;;;19.63;4.85;;;;;;;8.76;75.48;100350.53;5041199;28;20040;-60
2022/11/24 03:11:31;;;;;;;17.15;4.05;;;;;;;8.78;75.47;100354.75;5035243;28;20052;-60
2022/11/24 03:13:56;;;;;;;22.10;4.88;;;;;;;8.80;75.41;100351.72;5032413;28;20072;-60
2022/11/24 03:16:21;;;;;;;15.13;3.95;;;;;;;8.82;75.24;100355.09;5024829;28;20042;-60
2022/11/24 03:18:49;;;;;;;20.15;4.03;;;;;;;8.80;75.38;100351.72;5034685;28;20385;-60
2022/11/24 03:21:15;;;;;;;20.15;4.50;;;;;;;8.84;75.47;100356.50;5033349;28;20477;-60
2022/11/24 03:23:40;;;;;;;19.52;4.78;;;;;;;8.80;75.87;100360.00;5032021;28;20036;-60
2022/11/24 03:26:10;;;;;;;24.85;4.32;;;;;;;8.79;75.76;100359.19;5034402;28;20033;-60
2022/11/24 03:28:35;;;;;;;25.00;4.25;;;;;;;8.81;75.59;100370.00;5034425;28;20029;-60
2022/11/24 03:31:01;;;;;;;20.25;4.15;;;;;;;8.85;75.77;100363.72;5032768;28;20040;-60
2022/11/24 03:33:26;;;;;;;22.55;4.25;;;;;;;8.85;75.91;100371.19;5033775;28;20076;-60
2022/11/24 03:35:52;;;;;;;30.70;5.25;;;;;;;8.85;75.98;100365.66;5033969;28;20040;-60
2022/11/24 03:38:17;;;;;;;16.90;3.50;;;;;;;8.87;75.33;100363.44;5013315;28;20022;-60
2022/11/24 03:40:42;;;;;;;27.55;4.47;;;;;;;8.87;75.22;100365.38;5016978;28;20071;-60
2022/11/24 03:43:08;;;;;;;20.15;4.68;;;;;;;8.87;75.46;100368.16;5032270;28;20116;-60
2022/11/24 03:45:33;;;;;;;22.75;5.03;;;;;;;8.91;75.90;100370.16;5033872;28;20035;-60
2022/11/24 03:47:58;;;;;;;21.85;4.22;;;;;;;8.93;76.06;100367.97;5034141;28;20033;-60
2022/11/24 03:50:23;;;;;;;24.13;5.35;;;;;;;8.91;75.09;100372.09;5032244;28;20025;-60
2022/11/24 03:52:49;;;;;;;18.17;4.25;;;;;;;8.94;75.86;100369.66;5033322;28;20099;-59
2022/11/24 03:55:14;;;;;;;21.38;4.72;;;;;;;8.98;75.78;100367.22;5031370;28;20041;-60
2022/11/24 03:57:40;;;;;;;21.15;4.30;;;;;;;9.00;75.73;100367.78;5023926;28;20041;-60
2022/11/24 04:00:06;;;;;;;24.23;4.07;;;;;;;9.00;75.50;100365.88;5033944;28;20025;-60
2022/11/24 04:02:31;;;;;;;30.17;5.13;;;;;;;9.00;75.54;100363.13;5033982;28;20431;-60
2022/11/24 04:04:58;;;;;;;19.48;4.03;;;;;;;9.01;75.87;100370.31;5021295;28;20037;-60
2022/11/24 04:07:23;;;;;;;27.17;5.13;;;;;;;9.01;75.43;100363.94;5033149;28;20389;-60
2022/11/24 04:09:49;;;;;;;20.13;4.32;;;;;;;8.99;75.45;100377.19;5028042;28;20040;-60
2022/11/24 04:14:58;;;;;;;21.02;4.43;;;;;;;8.95;75.73;100387.94;5031002;28;20554;-60
2022/11/24 04:17:23;;;;;;;23.10;4.72;;;;;;;8.99;76.34;100391.03;5032649;28;20029;-60
2022/11/24 04:19:48;;;;;;;30.73;4.78;;;;;;;8.95;75.94;100407.31;5032831;28;20410;-60
2022/11/24 04:22:14;;;;;;;18.63;4.28;;;;;;;8.95;76.27;100406.47;5033350;28;20037;-60
2022/11/24 04:24:39;;;;;;;19.42;4.18;;;;;;;8.95;76.05;100418.38;5033462;28;20654;-60
2022/11/24 04:27:04;;;;;;;24.65;4.57;;;;;;;8.97;76.29;100418.13;5031496;28;20030;-60
2022/11/24 04:29:29;;;;;;;18.58;4.03;;;;;;;9.00;76.42;100425.91;5032301;28;20037;-60
2022/11/24 04:31:55;;;;;;;18.67;4.45;;;;;;;9.00;76.25;100429.53;5032433;28;20029;-60
2022/11/24 04:34:20;;;;;;;17.80;3.70;;;;;;;9.02;76.57;100435.66;5032235;28;20053;-60
2022/11/24 04:36:45;;;;;;;16.45;3.53;;;;;;;9.04;76.72;100440.97;5032225;28;20025;-60
2022/11/24 04:39:11;;;;;;;21.25;4.20;;;;;;;9.04;76.98;100430.72;5031144;28;20030;-60
2022/11/24 04:41:36;;;;;;;17.05;3.30;;;;;;;9.03;76.77;100434.56;5031475;28;20025;-60
2022/11/24 04:44:01;;;;;;;15.88;4.05;;;;;;;9.02;76.87;100427.34;5031624;28;20040;-60
2022/11/24 04:46:27;;;;;;;18.33;3.10;;;;;;;9.03;77.21;100442.03;5033019;28;20033;-60
2022/11/24 04:48:52;;;;;;;13.60;3.05;;;;;;;9.01;76.82;100442.28;5030561;28;20543;-60
2022/11/24 04:51:17;;;;;;;12.27;2.70;;;;;;;9.02;77.08;100437.59;5032332;28;20048;-60
2022/11/24 04:53:42;;;;;;;11.30;3.05;;;;;;;9.03;76.64;100442.03;5029154;28;20021;-60
2022/11/24 04:56:08;;;;;;;10.40;2.65;;;;;;;8.99;76.37;100446.38;5026227;28;20061;-60
2022/11/24 04:58:34;;;;;;;12.35;2.53;;;;;;;8.99;76.41;100443.63;5031681;28;20099;-60
2022/11/24 05:00:59;;;;;;;10.98;2.17;;;;;;;9.01;76.10;100441.44;5030846;28;20396;-60
2022/11/24 05:03:24;;;;;;;8.85;2.40;;;;;;;9.01;76.53;100439.53;5032780;28;20080;-60
2022/11/24 05:05:50;;;;;;;10.82;2.20;;;;;;;8.96;76.38;100442.22;5032727;28;20491;-59
2022/11/24 05:08:15;;;;;;;7.38;2.10;;;;;;;8.97;75.91;100445.81;5031694;28;20087;-60
2022/11/24 05:10:41;;;;;;;8.75;2.30;;;;;;;8.96;76.00;100439.44;5022774;28;20026;-60
2022/11/24 05:13:10;;;;;;;7.25;2.20;;;;;;;8.96;76.14;100444.97;5030355;28;20057;-60
2022/11/24 05:15:39;;;;;;;9.23;1.77;;;;;;;8.96;75.86;100452.41;5029764;28;20124;-60
2022/11/24 05:18:11;;;;;;;7.20;1.83;;;;;;;8.96;76.40;100463.50;5034022;28;20091;-60
2022/11/24 05:20:37;;;;;;;8.40;2.03;;;;;;;8.94;76.26;100455.47;5042526;28;20021;-60
2022/11/24 05:23:06;;;;;;;6.65;1.75;;;;;;;8.91;75.97;100461.50;5051044;28;20090;-60
2022/11/24 05:25:33;;;;;;;9.52;2.25;;;;;;;8.92;76.26;100465.97;5035523;28;20034;-60
2022/11/24 05:28:08;;;;;;;8.00;1.70;;;;;;;8.90;76.58;100468.13;5030947;28;20457;-61
2022/11/24 05:30:37;;;;;;;9.27;1.85;;;;;;;8.92;76.97;100477.03;5029519;28;20400;-60
2022/11/24 05:33:11;;;;;;;10.65;2.40;;;;;;;8.92;76.79;100471.50;5030874;28;20045;-60
2022/11/24 05:35:36;;;;;;;10.38;2.20;;;;;;;8.89;77.12;100476.69;5028607;28;20478;-60
2022/11/24 05:38:03;;;;;;;10.57;2.22;;;;;;;8.85;77.01;100468.06;5011451;28;20041;-60
2022/11/24 05:40:30;;;;;;;8.65;1.80;;;;;;;8.88;76.97;100481.34;5031378;28;20025;-60
2022/11/24 05:42:55;;;;;;;10.60;2.35;;;;;;;8.88;77.16;100480.53;5030162;28;20025;-60
2022/11/24 05:45:20;;;;;;;9.65;2.10;;;;;;;8.90;77.31;100484.72;5032026;28;20032;-60
2022/11/24 05:47:47;;;;;;;18.13;3.50;;;;;;;8.91;77.00;100485.56;5021796;28;20092;-60
2022/11/24 05:50:15;;;;;;;12.93;3.80;;;;;;;8.91;77.43;100486.41;5029623;28;20128;-60
2022/11/24 05:52:41;;;;;;;13.45;3.20;;;;;;;8.93;76.99;100492.53;5044461;28;20037;-60
2022/11/24 05:55:07;;;;;;;16.73;3.97;;;;;;;8.92;77.07;100490.88;5022913;28;20028;-60
2022/11/24 05:57:33;;;;;;;13.63;3.40;;;;;;;8.96;76.83;100493.94;5031149;28;20025;-60
2022/11/24 05:59:58;;;;;;;12.23;3.22;;;;;;;8.95;77.39;100504.19;5030343;28;20036;-59
2022/11/24 06:02:24;;;;;;;16.95;3.70;;;;;;;8.97;77.14;100510.31;5023616;28;20112;-60
2022/11/24 06:04:49;;;;;;;14.90;3.75;;;;;;;9.01;76.73;100513.44;5032922;28;20026;-60
2022/11/24 06:07:15;;;;;;;12.88;3.42;;;;;;;9.02;76.99;100521.47;5027734;28;20051;-60
2022/11/24 06:09:42;;;;;;;15.07;3.22;;;;;;;9.03;76.65;100531.44;5041131;28;20028;-59
2022/11/24 06:12:08;;;;;;;11.80;3.22;;;;;;;9.03;76.57;100527.84;5028952;28;20108;-60
2022/11/24 06:14:33;;;;;;;11.88;2.92;;;;;;;8.95;75.88;100534.63;5031025;28;20044;-60
2022/11/24 06:16:59;;;;;;;13.63;2.58;;;;;;;8.96;76.29;100525.25;5028758;28;20022;-60
2022/11/24 06:19:24;;;;;;;14.93;2.53;;;;;;;9.01;75.78;100538.34;5037519;28;20071;-60
2022/11/24 06:21:49;;;;;;;11.18;3.00;;;;;;;8.95;75.69;100540.16;5029985;28;20048;-60
2022/11/24 06:24:15;;;;;;;15.35;2.33;;;;;;;8.99;75.83;100555.19;5038819;28;20029;-60
2022/11/24 06:26:40;;;;;;;10.77;2.58;;;;;;;8.97;75.97;100553.78;5029125;28;20032;-59
2022/11/24 06:29:06;;;;;;;11.75;2.80;;;;;;;9.01;75.88;100560.50;5031497;28;20056;-59
2022/11/24 06:31:31;;;;;;;7.00;2.33;;;;;;;8.96;75.74;100568.69;5030454;28;20052;-59
2022/11/24 06:33:56;;;;;;;12.80;2.67;;;;;;;8.96;75.45;100579.75;5026335;28;20049;-60
2022/11/24 06:36:22;;;;;;;7.85;2.13;;;;;;;8.97;75.15;100579.53;5027341;28;20065;-60
2022/11/24 06:38:47;;;;;;;11.38;2.10;;;;;;;8.98;75.21;100580.34;5032058;28;20035;-60
2022/11/24 06:41:14;;;;;;;8.60;2.25;;;;;;;8.97;75.39;100585.06;5027378;28;20064;-60
2022/11/24 06:43:40;;;;;;;8.32;1.80;;;;;;;8.99;75.58;100588.41;5025055;28;20048;-60
2022/11/24 06:46:05;;;;;;;7.55;1.85;;;;;;;9.01;74.47;100607.56;5022614;28;20089;-60
2022/11/24 06:48:31;;;;;;;5.28;1.88;;;;;;;8.94;74.97;100607.69;5027288;28;20049;-60
2022/11/24 06:51:04;;;;;;;6.35;2.10;;;;;;;8.98;75.66;100611.66;5034954;28;20362;-60
2022/11/24 06:53:29;;;;;;;;;;;;;;;9.12;75.70;100617.72;5023596;28;20033;-60
2022/11/24 06:55:58;;;;;;;7.82;1.98;;;;;;;9.01;75.09;100627.75;5024400;28;19970;-62
2022/11/24 06:58:23;;;;;;;5.30;1.73;;;;;;;8.99;75.08;100634.63;5027253;28;20101;-60
2022/11/24 07:00:49;;;;;;;6.47;1.92;;;;;;;8.98;75.12;100630.19;5028398;28;20128;-60
2022/11/24 07:03:15;;;;;;;6.53;1.77;;;;;;;8.95;75.32;100625.16;5030141;28;20045;-59
2022/11/24 07:05:41;;;;;;;7.90;2.53;;;;;;;8.93;74.81;100641.19;5026967;28;20530;-60
2022/11/24 07:08:06;;;;;;;6.10;1.80;;;;;;;8.91;74.88;100646.94;5026998;28;20038;-60
2022/11/24 07:10:32;;;;;;;5.85;1.90;;;;;;;8.93;75.07;100655.84;5028136;28;20076;-60
2022/11/24 07:13:02;;;;;;;10.88;2.10;;;;;;;8.88;74.78;100664.03;5027455;28;20033;-60
2022/11/24 07:15:28;;;;;;;7.38;1.98;;;;;;;8.88;74.91;100672.34;5027182;28;20056;-60
2022/11/24 07:17:53;;;;;;;9.70;2.35;;;;;;;8.88;74.70;100677.88;5029510;28;20466;-60
2022/11/24 07:20:18;;;;;;;7.32;2.28;;;;;;;8.85;75.08;100683.91;5034191;28;20036;-60
2022/11/24 07:22:44;;;;;;;11.68;2.65;;;;;;;8.84;75.18;100687.75;5027576;28;20542;-60
2022/11/24 07:25:09;;;;;;;8.20;2.10;;;;;;;8.84;75.30;100685.84;5013170;28;20038;-60
2022/11/24 07:27:35;;;;;;;7.18;1.85;;;;;;;8.88;75.03;100697.25;5023070;28;20021;-60
2022/11/24 07:30:01;;;;;;;6.13;2.22;;;;;;;8.88;75.30;100700.00;5031055;28;20064;-59
2022/11/24 07:32:27;;;;;;;7.75;2.25;;;;;;;8.87;75.29;100700.28;5031712;28;20560;-58
2022/11/24 07:34:53;;;;;;;8.15;2.10;;;;;;;8.87;75.06;100703.03;5025726;28;20053;-60
2022/11/24 07:37:18;;;;;;;7.63;1.88;;;;;;;8.83;75.08;100700.75;5030926;28;20049;-59
2022/11/24 07:39:43;;;;;;;6.45;2.05;;;;;;;8.86;75.24;100707.75;5032555;28;20037;-59
2022/11/24 07:42:10;;;;;;;5.38;1.70;;;;;;;8.87;75.06;100714.94;5032467;28;20033;-60
2022/11/24 07:44:35;;;;;;;8.45;2.00;;;;;;;8.84;74.82;100713.53;5029605;28;20033;-59
2022/11/24 07:47:00;;;;;;;8.07;2.13;;;;;;;8.85;74.58;100717.13;5034765;28;20036;-60
2022/11/24 07:49:26;;;;;;;4.88;2.05;;;;;;;8.84;74.43;100718.19;5040644;28;20040;-61
2022/11/24 07:51:51;;;;;;;8.50;1.90;;;;;;;8.76;73.75;100713.06;5027130;28;20041;-60
2022/11/24 07:54:19;;;;;;;7.35;1.90;;;;;;;8.78;74.09;100728.34;5021528;28;20045;-60
2022/11/24 07:56:47;;;;;;;8.85;1.98;;;;;;;8.73;74.31;100728.25;5009270;28;20033;-60
2022/11/24 07:59:12;;;;;;;8.70;1.92;;;;;;;8.78;74.44;100738.56;5029811;28;20574;-59
2022/11/24 08:01:38;;;;;;;8.25;2.30;;;;;;;8.74;74.22;100746.50;5026964;28;20026;-58
2022/11/24 08:04:03;;;;;;;9.13;2.03;;;;;;;8.74;74.21;100740.13;5029164;28;20036;-58
2022/11/24 08:06:28;;;;;;;8.95;1.95;;;;;;;8.77;74.08;100751.56;5028549;28;20040;-59
2022/11/24 08:08:55;;;;;;;8.70;1.98;;;;;;;8.78;74.38;100752.41;5030440;28;20457;-59
2022/11/24 08:11:20;;;;;;;8.50;1.95;;;;;;;8.81;74.37;100763.00;5031337;28;20112;-60
2022/11/24 08:13:45;;;;;;;9.35;2.28;;;;;;;8.85;73.90;100765.03;5032300;28;20116;-60
2022/11/24 08:16:13;;;;;;;10.32;2.13;;;;;;;8.86;74.38;100763.09;5032077;28;20469;-60
2022/11/24 08:18:39;;;;;;;7.68;1.98;;;;;;;8.87;74.04;100770.31;5031751;28;20033;-60
2022/11/24 08:21:05;;;;;;;5.97;2.00;;;;;;;8.87;74.19;100775.84;5032741;28;20492;-62
2022/11/24 08:23:31;;;;;;;9.95;1.88;;;;;;;8.88;73.81;100782.22;5032411;28;20121;-61
2022/11/24 08:25:59;;;;;;;8.43;2.08;;;;;;;8.85;74.30;100789.09;5032136;28;20116;-61
2022/11/24 08:28:24;;;;;;;9.82;2.90;;;;;;;8.85;74.10;100781.63;5029364;28;20040;-60
2022/11/24 08:30:50;;;;;;;8.15;2.10;;;;;;;8.88;74.20;100787.75;5027232;28;20049;-61
2022/11/24 08:33:15;;;;;;;10.90;2.28;;;;;;;8.91;73.80;100785.34;5029337;28;20052;-60
2022/11/24 08:35:40;;;;;;;6.50;2.30;;;;;;;8.97;74.20;100795.44;5031340;28;20029;-60
2022/11/24 08:38:06;;;;;;;6.45;2.30;;;;;;;8.88;72.88;100796.88;5032131;28;20040;-60
2022/11/24 08:40:31;;;;;;;11.48;2.38;;;;;;;8.90;73.51;100803.03;5030633;28;20025;-60
2022/11/24 08:43:00;;;;;;;9.60;2.33;;;;;;;8.94;74.08;100815.31;5032073;28;20072;-60
2022/11/24 08:45:26;;;;;;;10.45;2.42;;;;;;;8.93;74.04;100821.09;5032020;28;20037;-60
2022/11/24 08:47:53;;;;;;;8.15;2.33;;;;;;;8.89;73.99;100828.22;5028885;28;20033;-60
2022/11/24 08:50:19;;;;;;;14.07;2.67;;;;;;;8.91;73.63;100826.84;5032168;28;20111;-60
2022/11/24 08:52:45;;;;;;;9.38;2.17;;;;;;;8.91;73.52;100828.78;5031359;28;20036;-60
2022/11/24 08:55:10;;;;;;;7.20;2.38;;;;;;;8.92;73.69;100833.22;5028544;28;20026;-61
2022/11/24 08:57:35;;;;;;;10.00;2.45;;;;;;;8.94;73.98;100840.22;5031729;28;20064;-60
2022/11/24 09:00:02;;;;;;;12.68;2.35;;;;;;;8.95;74.05;100850.19;5027793;28;20052;-60
2022/11/24 09:02:28;;;;;;;9.93;2.33;;;;;;;9.01;73.46;100853.94;5028640;28;20372;-60
2022/11/24 09:04:53;;;;;;;11.60;2.47;;;;;;;9.00;73.82;100852.22;5030922;28;20038;-60
2022/11/24 09:07:18;;;;;;;12.85;2.70;;;;;;;9.04;73.96;100861.78;5023816;28;20025;-60
2022/11/24 09:09:44;;;;;;;11.98;2.75;;;;;;;9.05;73.66;100858.75;5023644;28;20037;-59
2022/11/24 09:12:09;;;;;;;11.18;2.53;;;;;;;9.05;73.15;100858.75;5029514;28;20061;-60
2022/11/24 09:14:34;;;;;;;12.32;3.15;;;;;;;9.10;73.64;100867.16;5030370;28;20033;-60
2022/11/24 09:17:00;;;;;;;10.18;2.60;;;;;;;9.15;73.82;100860.03;5031816;28;20029;-60
2022/11/24 09:19:25;;;;;;;13.85;3.08;;;;;;;9.22;74.17;100866.31;5029290;28;20485;-59
2022/11/24 09:21:50;;;;;;;10.13;3.10;;;;;;;9.31;73.51;100867.59;5031179;28;20033;-60
2022/11/24 09:24:16;;;;;;;13.10;3.25;;;;;;;9.42;73.73;100868.66;5031326;28;20033;-60
2022/11/24 09:26:42;;;;;;;15.57;4.57;;;;;;;9.51;73.36;100878.25;5027813;28;20053;-60
2022/11/24 09:29:09;;;;;;;10.70;3.30;;;;;;;9.66;73.51;100888.81;5030009;28;20024;-59
2022/11/24 09:31:36;;;;;;;13.43;3.28;;;;;;;9.78;72.58;100884.06;5031467;28;20531;-59
2022/11/24 09:34:12;;;;;;;11.25;3.58;;;;;;;9.91;72.73;100882.97;5030085;28;20044;-60
2022/11/24 09:36:37;;;;;;;12.65;3.92;;;;;;;10.01;71.93;100889.50;5029930;28;20436;-60
2022/11/24 09:39:02;;;;;;;14.48;3.80;;;;;;;10.08;71.76;100892.16;5030861;28;20026;-60
2022/11/24 09:41:37;;;;;;;14.48;3.58;;;;;;;10.24;72.11;100888.56;5030932;28;20025;-61
2022/11/24 09:44:23;;;;;;;17.48;3.42;;;;;;;10.36;71.59;100891.28;5019433;28;20168;-60
2022/11/24 09:47:07;;;;;;;14.00;3.50;;;;;;;10.47;71.08;100892.31;5031197;28;20079;-60
2022/11/24 09:49:42;;;;;;;13.77;3.50;;;;;;;10.57;70.51;100906.34;5029460;28;20488;-60
2022/11/24 09:52:15;;;;;;;11.48;3.30;;;;;;;10.73;70.04;100910.25;5029641;28;20025;-60
2022/11/24 09:54:54;;;;;;;14.73;3.60;;;;;;;10.84;70.24;100925.94;5031211;28;20076;-61
2022/11/24 09:57:24;;;;;;;19.23;3.70;;;;;;;10.96;69.70;100918.34;5029439;28;20021;-60
2022/11/24 09:59:49;;;;;;;13.02;3.42;;;;;;;11.06;69.29;100917.69;5031036;28;20552;-60
2022/11/24 10:02:18;;;;;;;15.30;3.20;;;;;;;11.11;68.60;100920.53;5019014;28;20113;-61
2022/11/24 10:04:45;;;;;;;11.50;3.45;;;;;;;11.14;68.30;100925.59;5030597;28;20055;-60
2022/11/24 10:07:23;;;;;;;11.88;3.78;;;;;;;11.25;68.86;100923.81;5030637;28;20462;-60
2022/11/24 10:10:15;;;;;;;14.73;3.83;;;;;;;11.28;67.84;100917.75;5031099;28;20029;-60
2022/11/24 10:13:11;;;;;;;15.00;3.60;;;;;;;11.39;68.82;100939.00;5030009;28;20052;-60
2022/11/24 10:15:51;;;;;;;13.68;3.80;;;;;;;11.45;68.60;100932.44;5030650;28;20148;-60
2022/11/24 10:18:35;;;;;;;15.45;3.45;;;;;;;11.50;68.44;100938.03;5029189;28;20049;-60
2022/11/24 10:21:16;;;;;;;17.10;3.65;;;;;;;11.54;68.09;100942.00;5030841;28;20033;-60
2022/11/24 10:24:00;;;;;;;11.35;3.08;;;;;;;11.57;67.81;100951.75;5031696;28;20080;-60
2022/11/24 10:26:36;;;;;;;17.30;3.92;;;;;;;11.62;67.09;100948.22;5029597;28;20033;-61
2022/11/24 10:29:11;;;;;;;16.95;4.72;;;;;;;11.65;67.74;100956.03;5031320;28;20489;-61
2022/11/24 10:31:40;;;;;;;14.13;3.97;;;;;;;11.68;67.08;100952.75;5028359;28;20020;-60
2022/11/24 10:34:15;;;;;;;16.67;4.18;;;;;;;11.62;66.50;100956.53;5030969;28;20132;-60
2022/11/24 10:37:05;;;;;;;14.52;3.65;;;;;;;11.68;67.71;100961.09;5028375;28;20033;-61
2022/11/24 10:39:40;;;;;;;10.77;4.00;;;;;;;11.74;66.94;100963.66;5010112;28;20409;-60
2022/11/24 10:42:22;;;;;;;11.48;3.53;;;;;;;11.77;67.27;100965.94;5010599;28;20133;-59
2022/11/24 10:45:01;;;;;;;14.48;3.45;;;;;;;11.85;67.03;100963.84;5014440;28;20038;-60
2022/11/24 10:47:27;;;;;;;17.05;3.47;;;;;;;11.84;66.69;100963.00;5009528;28;20489;-60
2022/11/24 10:50:03;;;;;;;15.02;2.83;;;;;;;11.88;66.82;100966.94;5011083;28;20026;-60
2022/11/24 10:52:35;;;;;;;13.65;3.65;;;;;;;11.89;66.44;100960.25;5009685;28;20032;-60
2022/11/24 10:55:03;;;;;;;15.02;3.00;;;;;;;11.88;66.41;100957.75;5014328;28;20109;-60
2022/11/24 10:57:34;;;;;;;11.57;3.10;;;;;;;11.93;66.54;100961.44;5013911;28;20030;-60
2022/11/24 11:00:01;;;;;;;15.35;3.83;;;;;;;11.91;66.55;100957.25;5030512;28;20120;-60
2022/11/24 11:02:36;;;;;;;11.05;3.13;;;;;;;11.92;66.24;100959.75;5031675;28;20039;-60
2022/11/24 11:05:23;;;;;;;16.50;3.95;;;;;;;11.93;66.87;100947.53;5030943;28;20072;-59
2022/11/24 11:07:48;;;;;;;14.27;3.63;;;;;;;11.93;65.72;100955.03;5031529;28;20117;-60
2022/11/24 11:10:22;;;;;;;9.13;2.47;;;;;;;11.90;66.42;100955.53;5032857;28;20103;-60
2022/11/24 11:12:47;;;;;;;12.63;3.38;;;;;;;11.89;66.53;100953.88;5029326;28;20071;-60
2022/11/24 11:15:28;;;;;;;14.70;3.22;;;;;;;11.90;66.90;100956.38;5026721;28;20056;-60
2022/11/24 11:17:59;;;;;;;15.23;3.78;;;;;;;11.88;66.09;100957.75;5030345;28;20029;-60
2022/11/24 11:20:30;;;;;;;12.40;3.28;;;;;;;11.88;66.26;100957.75;5031966;28;20030;-60
2022/11/24 11:23:11;;;;;;;15.73;3.45;;;;;;;11.88;67.08;100961.38;5028198;28;20083;-61
2022/11/24 11:25:37;;;;;;;14.25;2.72;;;;;;;11.89;66.44;100957.47;5031939;28;20435;-60
2022/11/24 11:28:26;;;;;;;15.23;3.33;;;;;;;11.92;66.64;100956.13;5031470;28;20091;-60
2022/11/24 11:31:04;;;;;;;14.13;3.00;;;;;;;11.90;66.65;100959.16;5033437;28;20392;-61
2022/11/24 11:33:31;;;;;;;18.25;3.78;;;;;;;11.91;66.59;100962.81;5029551;28;20396;-61